Time;durP1;ratioP1;P1;durP2;ratioP2;P2;SDS_P1;SDS_P2;PMS_P1;PMS_P2;Temp;Humidity;BMP_temperature;BMP_pressure;BME280_temperature;BME280_humidity;BME280_pressure;Samples;Min_cycle;Max_cycle;Signal;HPM_P1;HPM_P2
2021/01/27 00:01:46;;;;;;;1.55;1.00;;;;;;;27.52;24.95;96831.38;4976226;28;20986;-36
2021/01/27 00:04:12;;;;;;;1.10;0.98;;;;;;;27.51;24.97;96834.94;4971807;28;20574;-31
2021/01/27 00:06:37;;;;;;;1.58;1.00;;;;;;;27.51;25.02;96830.50;4976373;28;20238;-38
2021/01/27 00:09:03;;;;;;;1.33;1.05;;;;;;;27.50;24.88;96823.56;4973147;28;20051;-36
2021/01/27 00:11:29;;;;;;;1.27;1.00;;;;;;;27.49;24.93;96828.91;4964316;28;20038;-38
2021/01/27 00:13:55;;;;;;;1.85;1.17;;;;;;;27.49;24.86;96824.50;4962133;28;20108;-38
2021/01/27 00:16:20;;;;;;;2.42;1.10;;;;;;;27.49;24.86;96819.25;4964236;28;20112;-41
2021/01/27 00:18:47;;;;;;;1.80;1.15;;;;;;;27.47;24.99;96813.25;4973675;28;20092;-36
2021/01/27 00:21:12;;;;;;;1.10;0.98;;;;;;;27.47;25.03;96812.38;4974852;28;20042;-37
2021/01/27 00:23:38;;;;;;;1.08;0.90;;;;;;;27.48;24.81;96808.81;4968768;28;20041;-40
2021/01/27 00:26:03;;;;;;;2.38;1.40;;;;;;;27.49;24.98;96805.22;4984879;28;20038;-39
2021/01/27 00:28:29;;;;;;;1.75;1.02;;;;;;;27.49;24.98;96800.81;4972215;28;20046;-38
2021/01/27 00:30:55;;;;;;;2.65;1.10;;;;;;;27.48;24.82;96798.28;4980154;28;20038;-39
2021/01/27 00:33:21;;;;;;;1.38;1.15;;;;;;;27.47;25.12;96801.84;4982315;28;20859;-35
2021/01/27 00:35:48;;;;;;;1.20;0.90;;;;;;;27.46;24.97;96794.91;4976017;28;20587;-37
2021/01/27 00:38:17;;;;;;;1.20;1.10;;;;;;;27.46;24.82;96800.16;4972130;28;20049;-34
2021/01/27 00:40:43;;;;;;;1.60;1.00;;;;;;;27.47;25.05;96793.97;4984814;28;20563;-35
2021/01/27 00:43:09;;;;;;;2.13;1.20;;;;;;;27.45;25.04;96794.03;4988932;28;20057;-39
2021/01/27 00:45:35;;;;;;;1.65;1.10;;;;;;;27.45;24.96;96793.19;4983820;28;20208;-37
2021/01/27 00:48:01;;;;;;;2.30;1.00;;;;;;;27.44;24.93;96775.72;4972102;28;20054;-38
2021/01/27 00:50:27;;;;;;;2.60;1.30;;;;;;;27.42;24.91;96775.81;4968132;28;20057;-35
2021/01/27 00:52:52;;;;;;;2.22;1.17;;;;;;;27.43;25.05;96766.13;4994267;28;20045;-37
2021/01/27 00:55:20;;;;;;;0.93;0.85;;;;;;;27.41;24.98;96770.66;4983887;28;20050;-37
2021/01/27 00:57:46;;;;;;;1.30;1.10;;;;;;;27.42;25.00;96761.81;4971698;28;20058;-32
2021/01/27 01:00:40;;;;;;;1.25;1.08;;;;;;;27.42;24.94;96770.53;4982527;28;20124;-35
2021/01/27 01:03:06;;;;;;;1.27;1.10;;;;;;;27.42;24.90;96761.81;4963621;28;20042;-36
2021/01/27 01:05:36;;;;;;;1.20;1.00;;;;;;;27.42;25.04;96759.19;4973623;28;21033;-37
2021/01/27 01:08:02;;;;;;;1.90;1.33;;;;;;;27.41;24.82;96754.88;4971526;28;20041;-40
2021/01/27 01:10:32;;;;;;;1.88;1.10;;;;;;;27.41;24.96;96765.38;4973777;28;20042;-36
2021/01/27 01:12:58;;;;;;;2.05;0.90;;;;;;;27.39;25.03;96768.94;4978775;28;20042;-35
2021/01/27 01:15:24;;;;;;;1.13;1.02;;;;;;;27.41;24.94;96770.66;4977287;28;20523;-36
2021/01/27 01:17:50;;;;;;;2.25;1.00;;;;;;;27.42;25.02;96767.06;4975752;28;20060;-38
2021/01/27 01:20:16;;;;;;;2.15;0.93;;;;;;;27.40;24.95;96751.38;4978449;28;20458;-38
2021/01/27 01:22:45;;;;;;;1.15;0.90;;;;;;;27.39;25.03;96745.25;4976279;28;20396;-37
2021/01/27 01:25:11;;;;;;;1.40;1.10;;;;;;;27.39;24.90;96745.25;4978602;28;20676;-39
2021/01/27 01:27:37;;;;;;;1.30;0.90;;;;;;;27.40;25.04;96746.13;4974590;28;20054;-37
2021/01/27 01:30:12;;;;;;;1.33;1.00;;;;;;;27.39;25.12;96742.63;4983687;28;20645;-37
2021/01/27 01:32:37;;;;;;;2.10;0.85;;;;;;;27.39;24.95;96732.09;4982629;28;20046;-37
2021/01/27 01:35:03;;;;;;;1.27;0.88;;;;;;;27.36;24.91;96732.31;4974962;28;20049;-35
2021/01/27 01:37:29;;;;;;;1.17;1.00;;;;;;;27.37;24.97;96734.00;4975312;28;20042;-40
2021/01/27 01:39:54;;;;;;;1.33;1.17;;;;;;;27.37;24.98;96728.72;4981126;28;20042;-35
2021/01/27 01:42:20;;;;;;;1.80;1.00;;;;;;;27.37;24.99;96728.72;4981547;28;20046;-39
2021/01/27 01:44:46;;;;;;;1.40;0.90;;;;;;;27.36;25.04;96729.69;4982102;28;20038;-37
2021/01/27 01:47:12;;;;;;;1.20;1.00;;;;;;;27.37;24.99;96728.72;4989256;28;20138;-40
2021/01/27 01:49:38;;;;;;;3.90;1.10;;;;;;;27.37;24.99;96717.34;4981941;28;20034;-38
2021/01/27 01:52:03;;;;;;;2.05;1.10;;;;;;;27.37;24.93;96718.19;4979647;28;20039;-35
2021/01/27 01:54:43;;;;;;;0.95;0.70;;;;;;;27.35;24.83;96704.28;4973881;28;20042;-35
2021/01/27 01:57:14;;;;;;;1.67;1.13;;;;;;;27.35;24.96;96709.53;4985391;28;20456;-35
2021/01/27 01:59:40;;;;;;;1.27;0.90;;;;;;;27.35;24.96;96717.44;4999609;28;20121;-37
2021/01/27 02:02:07;;;;;;;1.65;0.90;;;;;;;27.34;24.95;96707.84;4959918;28;20044;-39
2021/01/27 02:04:50;;;;;;;1.02;0.93;;;;;;;27.34;25.06;96713.13;4953372;28;20047;-38
2021/01/27 02:07:15;;;;;;;2.42;1.30;;;;;;;27.34;25.02;96707.03;4957659;28;20077;-39
2021/01/27 02:09:41;;;;;;;0.93;0.88;;;;;;;27.32;25.01;96696.59;4962491;28;20049;-37
2021/01/27 02:12:15;;;;;;;1.85;0.85;;;;;;;27.31;25.07;96692.25;4968755;28;20069;-35
2021/01/27 02:15:02;;;;;;;1.13;1.00;;;;;;;27.31;25.13;96675.63;4979610;28;20034;-37
2021/01/27 02:17:36;;;;;;;1.33;1.02;;;;;;;27.30;25.11;96674.78;4987393;28;20034;-35
2021/01/27 02:20:23;;;;;;;2.13;1.20;;;;;;;27.30;24.98;96674.78;4966166;28;20043;-39
2021/01/27 02:22:55;;;;;;;2.08;1.10;;;;;;;27.30;24.92;96674.78;4971252;28;23252;-41
2021/01/27 02:26:02;;;;;;;0.77;0.75;;;;;;;27.29;24.88;96677.50;4980835;28;20034;-33
2021/01/27 02:28:49;;;;;;;1.02;0.90;;;;;;;27.29;25.07;96667.81;4990744;28;20068;-34
2021/01/27 02:31:14;;;;;;;1.33;0.80;;;;;;;27.28;25.10;96666.16;4996177;28;20042;-36
2021/01/27 02:33:56;;;;;;;0.95;0.88;;;;;;;27.28;24.93;96666.16;4985971;28;20046;-37
2021/01/27 02:36:31;;;;;;;1.50;1.00;;;;;;;27.27;25.05;96672.34;4970496;28;20066;-39
2021/01/27 02:38:59;;;;;;;0.93;0.85;;;;;;;27.28;25.06;96681.94;4969255;28;20045;-36
2021/01/27 02:41:33;;;;;;;2.58;1.05;;;;;;;27.28;25.09;96681.94;4965515;28;20124;-41
2021/01/27 02:44:02;;;;;;;1.35;0.90;;;;;;;27.26;24.95;96674.13;4973749;28;20100;-39
2021/01/27 02:46:44;;;;;;;1.90;0.60;;;;;;;27.27;25.12;96674.97;4990211;28;20048;-39
2021/01/27 02:49:16;;;;;;;1.45;1.00;;;;;;;27.25;25.02;96672.44;4991031;28;20052;-35
2021/01/27 02:52:03;;;;;;;1.15;0.88;;;;;;;27.25;24.99;96666.31;4956347;28;20161;-35
2021/01/27 02:54:55;;;;;;;1.20;0.82;;;;;;;27.24;24.95;96659.38;4995479;28;20038;-36
2021/01/27 02:57:39;;;;;;;1.17;0.90;;;;;;;27.25;25.05;96671.59;4991332;28;20073;-36
2021/01/27 03:00:17;;;;;;;1.23;0.90;;;;;;;27.25;25.09;96684.75;4973732;28;20069;-37
2021/01/27 03:02:45;;;;;;;1.15;0.90;;;;;;;27.24;25.10;96681.25;4972207;28;20076;-38
2021/01/27 03:05:17;;;;;;;1.15;0.80;;;;;;;27.23;24.97;96665.59;4992027;28;20065;-39
2021/01/27 03:07:43;;;;;;;;;;;;;;;27.23;25.06;96660.31;4978014;28;20136;-37
2021/01/27 03:10:19;;;;;;;0.98;0.80;;;;;;;27.21;25.23;96652.53;4978000;28;19918;-39
2021/01/27 03:12:47;;;;;;;1.90;0.90;;;;;;;27.22;25.06;96658.59;4967635;28;20067;-38
2021/01/27 03:15:13;;;;;;;0.88;0.80;;;;;;;27.20;25.03;96656.09;4988301;28;20096;-40
2021/01/27 03:17:39;;;;;;;1.10;0.90;;;;;;;27.21;24.91;96656.94;4990340;28;20042;-37
2021/01/27 03:20:12;;;;;;;1.42;0.70;;;;;;;27.22;25.01;96655.97;4989217;28;20131;-36
2021/01/27 03:22:45;;;;;;;1.48;0.88;;;;;;;27.21;24.98;96659.56;4974744;28;20602;-34
2021/01/27 03:25:12;;;;;;;1.55;0.70;;;;;;;27.22;25.21;96653.34;4975262;28;20038;-35
2021/01/27 03:27:42;;;;;;;1.05;0.95;;;;;;;27.20;25.15;96648.22;4968456;28;20043;-38
2021/01/27 03:30:09;;;;;;;1.35;0.80;;;;;;;27.20;25.12;96648.22;4974900;28;20030;-38
2021/01/27 03:33:11;;;;;;;1.77;0.90;;;;;;;27.20;24.85;96632.41;4983897;28;20490;-34
2021/01/27 03:35:44;;;;;;;1.00;0.77;;;;;;;27.22;25.06;96648.09;4985407;28;20022;-37
2021/01/27 03:38:19;;;;;;;1.08;0.98;;;;;;;27.20;25.11;96645.56;4993079;28;20060;-39
2021/01/27 03:40:45;;;;;;;1.13;0.90;;;;;;;27.19;25.25;96646.50;4987036;28;20109;-34
2021/01/27 03:43:25;;;;;;;1.10;0.80;;;;;;;27.20;25.15;96634.19;4956907;28;20456;-35
2021/01/27 03:46:00;;;;;;;0.82;0.80;;;;;;;27.19;25.17;96640.41;4982073;28;20522;-33
2021/01/27 03:48:32;;;;;;;0.75;0.73;;;;;;;27.17;24.98;96637.00;4975274;28;20534;-42
2021/01/27 03:50:58;;;;;;;1.58;0.85;;;;;;;27.17;25.04;96627.34;4965467;28;20094;-37
2021/01/27 03:53:25;;;;;;;0.80;0.80;;;;;;;27.17;25.06;96629.13;4967224;28;23482;-37
2021/01/27 03:55:56;;;;;;;1.73;0.93;;;;;;;27.22;25.00;96624.41;4965284;28;20046;-38
2021/01/27 03:58:36;;;;;;;5.47;0.88;;;;;;;27.25;24.98;96619.81;4978095;28;20018;-37
2021/01/27 04:01:07;;;;;;;1.00;0.73;;;;;;;27.25;24.95;96613.72;4971709;28;20443;-39
2021/01/27 04:03:32;;;;;;;1.00;0.90;;;;;;;27.26;24.84;96610.97;4965407;28;20054;-33
2021/01/27 04:05:59;;;;;;;1.20;0.65;;;;;;;27.25;24.79;96603.19;4969822;28;20042;-38
2021/01/27 04:08:25;;;;;;;2.45;0.95;;;;;;;27.27;24.96;96604.78;4976402;28;20081;-37
2021/01/27 04:10:50;;;;;;;1.40;0.82;;;;;;;27.28;24.85;96613.53;4993026;28;20533;-38
2021/01/27 04:13:16;;;;;;;2.17;1.20;;;;;;;27.27;24.21;96603.94;4972970;28;20483;-39
2021/01/27 04:15:42;;;;;;;1.90;0.95;;;;;;;27.26;24.36;96604.88;4986345;28;20619;-39
2021/01/27 04:18:09;;;;;;;2.47;1.23;;;;;;;27.26;24.81;96599.59;4976360;28;20038;-40
2021/01/27 04:20:35;;;;;;;0.98;0.68;;;;;;;27.26;24.98;96599.59;4979833;28;20547;-38
2021/01/27 04:23:01;;;;;;;1.15;1.00;;;;;;;27.27;24.83;96590.78;4979232;28;20034;-37
2021/01/27 04:25:27;;;;;;;1.00;0.80;;;;;;;27.26;24.82;96583.81;4980684;28;20369;-37
2021/01/27 04:27:53;;;;;;;0.80;0.80;;;;;;;27.29;24.76;96572.25;4974956;28;20046;-37
2021/01/27 04:30:22;;;;;;;1.85;0.70;;;;;;;27.29;24.86;96570.47;4990245;28;20037;-37
2021/01/27 04:32:48;;;;;;;1.77;0.75;;;;;;;27.29;24.78;96559.97;4979791;28;20034;-35
2021/01/27 04:35:14;;;;;;;0.70;0.60;;;;;;;27.28;24.76;96550.38;4970115;28;20626;-39
2021/01/27 04:37:39;;;;;;;1.08;0.80;;;;;;;27.29;24.60;96544.16;4974486;28;20042;-37
2021/01/27 04:40:07;;;;;;;1.20;0.73;;;;;;;27.30;24.81;96537.97;4973599;28;20492;-35
2021/01/27 04:42:32;;;;;;;2.10;0.93;;;;;;;27.31;24.88;96533.56;4979430;28;20042;-34
2021/01/27 04:44:59;;;;;;;0.98;0.70;;;;;;;27.30;24.88;96535.34;4983093;28;20087;-40
2021/01/27 04:47:53;;;;;;;0.73;0.60;;;;;;;27.31;24.71;96526.50;4979854;28;20049;-42
2021/01/27 04:50:32;;;;;;;1.10;0.75;;;;;;;27.31;24.74;96523.03;4984661;28;20042;-37
2021/01/27 04:53:32;;;;;;;1.10;0.60;;;;;;;27.31;24.73;96528.28;4989955;28;20100;-37
2021/01/27 04:56:13;;;;;;;1.63;0.82;;;;;;;27.29;24.79;96531.03;4972024;28;20085;-39
2021/01/27 04:58:41;;;;;;;1.35;0.90;;;;;;;27.30;24.81;96532.69;4997915;28;20695;-40
2021/01/27 05:01:14;;;;;;;1.10;0.63;;;;;;;27.30;24.66;96535.34;4980346;28;20080;-38
2021/01/27 05:04:07;;;;;;;1.05;0.70;;;;;;;27.28;24.92;96534.59;4984459;28;20037;-38
2021/01/27 05:06:34;;;;;;;0.68;0.57;;;;;;;27.27;24.75;96523.22;4990722;28;20109;-36
2021/01/27 05:09:06;;;;;;;1.60;0.85;;;;;;;27.28;24.78;96524.06;4978998;28;20129;-33
2021/01/27 05:11:31;;;;;;;1.95;0.90;;;;;;;27.28;24.72;96513.56;4959542;28;20176;-41
2021/01/27 05:13:58;;;;;;;1.80;0.90;;;;;;;27.27;24.70;96507.44;4985396;28;20049;-34
2021/01/27 05:16:27;;;;;;;0.88;0.60;;;;;;;27.27;24.81;96501.34;4983458;28;20048;-37
2021/01/27 05:18:58;;;;;;;0.60;0.60;;;;;;;27.27;24.76;96506.59;4975912;28;20055;-36
2021/01/27 05:22:03;;;;;;;0.88;0.70;;;;;;;27.26;24.75;96494.38;4998026;28;20045;-39
2021/01/27 05:24:29;;;;;;;0.85;0.47;;;;;;;27.26;24.75;96478.59;4976274;28;20049;-37
2021/01/27 05:26:57;;;;;;;0.77;0.57;;;;;;;27.25;24.77;96487.44;4979799;28;20416;-37
2021/01/27 05:29:29;;;;;;;1.63;0.65;;;;;;;27.24;24.75;96480.50;4978634;28;20062;-37
2021/01/27 05:32:04;;;;;;;;;;;;;;;27.24;24.89;96485.75;4978212;28;20725;-36
2021/01/27 05:34:35;;;;;;;1.75;0.70;;;;;;;27.21;24.90;96481.53;4983957;28;19917;-36
2021/01/27 05:37:02;;;;;;;1.38;0.90;;;;;;;27.22;24.81;96477.94;4988130;28;20764;-40
2021/01/27 05:39:28;;;;;;;0.50;0.50;;;;;;;27.21;24.76;96480.69;4979145;28;20038;-35
2021/01/27 05:42:04;;;;;;;1.20;0.73;;;;;;;27.22;24.82;96482.34;4988219;28;20045;-37
2021/01/27 05:44:30;;;;;;;1.00;0.80;;;;;;;27.22;24.63;96483.22;4970202;28;20119;-39
2021/01/27 05:46:56;;;;;;;0.60;0.60;;;;;;;27.23;24.89;96484.06;4976209;28;20088;-37
2021/01/27 05:49:29;;;;;;;0.70;0.60;;;;;;;27.22;24.89;96474.47;4976242;28;20116;-37
2021/01/27 05:52:10;;;;;;;0.73;0.60;;;;;;;27.23;24.88;96473.53;4987795;28;20092;-39
2021/01/27 05:54:36;;;;;;;1.15;0.77;;;;;;;27.22;24.74;96466.56;4980607;28;20466;-39
2021/01/27 05:57:02;;;;;;;0.70;0.57;;;;;;;27.23;24.99;96473.53;4977414;28;20032;-36
2021/01/27 05:59:27;;;;;;;0.65;0.52;;;;;;;27.23;24.83;96484.91;4978385;28;20046;-37
2021/01/27 06:02:02;;;;;;;1.55;0.57;;;;;;;27.23;24.93;96486.69;4975399;28;20045;-37
2021/01/27 06:04:29;;;;;;;0.88;0.70;;;;;;;27.23;24.75;96484.06;4977006;28;20723;-36
2021/01/27 06:07:06;;;;;;;1.88;0.50;;;;;;;27.23;24.96;96489.34;4978239;28;20069;-36
2021/01/27 06:09:36;;;;;;;1.10;0.82;;;;;;;27.22;24.96;96483.22;4981444;28;20069;-39
2021/01/27 06:12:10;;;;;;;0.55;0.45;;;;;;;27.22;24.85;96477.94;4978854;28;20045;-41
2021/01/27 06:14:43;;;;;;;0.80;0.63;;;;;;;27.21;24.82;96452.59;4979064;28;20049;-37
2021/01/27 06:17:28;;;;;;;1.23;0.68;;;;;;;27.20;24.79;96452.69;4985641;28;20648;-38
2021/01/27 06:19:57;;;;;;;1.20;0.90;;;;;;;27.19;24.92;96462.34;4970316;28;20093;-40
2021/01/27 06:22:42;;;;;;;0.70;0.60;;;;;;;27.19;24.84;96472.06;4977846;28;20153;-39
2021/01/27 06:25:11;;;;;;;0.60;0.52;;;;;;;27.20;24.90;96473.72;4974756;28;20750;-38
2021/01/27 06:28:09;;;;;;;0.95;0.70;;;;;;;27.20;24.88;96468.47;4982759;28;20121;-36
2021/01/27 06:30:41;;;;;;;5.50;1.00;;;;;;;27.19;24.25;96472.06;4978521;28;20030;-40
2021/01/27 06:33:29;;;;;;;2.25;1.33;;;;;;;27.15;24.19;96475.81;4971534;28;20053;-37
2021/01/27 06:36:25;;;;;;;2.17;1.05;;;;;;;27.10;24.85;96471.69;4986315;28;20054;-40
2021/01/27 06:38:50;;;;;;;2.15;0.93;;;;;;;27.10;24.85;96476.94;4990811;28;20037;-38
2021/01/27 06:41:38;;;;;;;1.35;0.70;;;;;;;27.09;24.74;96475.28;4976490;28;20037;-36
2021/01/27 06:44:16;;;;;;;2.30;0.60;;;;;;;27.10;24.93;96476.09;4990421;28;20033;-38
2021/01/27 06:46:56;;;;;;;0.70;0.70;;;;;;;27.11;25.00;96469.88;4987326;28;20096;-37
2021/01/27 06:49:57;;;;;;;2.63;0.60;;;;;;;27.09;25.08;96472.66;4979211;28;20090;-34
2021/01/27 06:52:38;;;;;;;0.98;0.68;;;;;;;27.10;25.10;96461.16;4991892;28;20038;-41
2021/01/27 06:55:19;;;;;;;2.55;0.73;;;;;;;27.11;24.96;96465.47;4980928;28;20030;-39
2021/01/27 06:58:12;;;;;;;0.90;0.70;;;;;;;27.12;24.91;96456.66;4976919;28;20097;-36
2021/01/27 07:01:02;;;;;;;0.70;0.60;;;;;;;27.11;25.02;96460.22;4991096;28;20050;-39
2021/01/27 07:03:40;;;;;;;1.30;0.60;;;;;;;27.13;25.04;96463.63;4993601;28;20054;-36
2021/01/27 07:06:51;;;;;;;0.80;0.68;;;;;;;27.13;25.09;96452.25;4988128;28;20466;-39
2021/01/27 07:09:21;;;;;;;0.85;0.70;;;;;;;27.12;24.94;96468.97;4996730;28;20026;-40
2021/01/27 07:12:05;;;;;;;2.35;1.00;;;;;;;27.12;24.74;96474.22;4973750;28;20412;-38
2021/01/27 07:14:59;;;;;;;1.60;0.60;;;;;;;27.13;24.98;96482.03;4994243;28;20100;-43
2021/01/27 07:17:50;;;;;;;2.05;0.80;;;;;;;27.15;25.01;96475.81;4970750;28;20026;-36
2021/01/27 07:20:32;;;;;;;0.65;0.57;;;;;;;27.15;24.98;96478.44;4979532;28;20049;-40
2021/01/27 07:23:21;;;;;;;2.05;0.60;;;;;;;27.15;24.98;96475.81;4968434;28;20034;-39
2021/01/27 07:25:50;;;;;;;2.17;0.75;;;;;;;27.13;25.12;96479.41;4982520;28;20038;-39
2021/01/27 07:28:37;;;;;;;8.80;0.80;;;;;;;27.17;25.15;96481.81;4980845;28;20049;-36
2021/01/27 07:31:14;;;;;;;4.95;1.38;;;;;;;27.15;25.03;96483.72;4979728;28;20053;-36
2021/01/27 07:33:58;;;;;;;3.03;1.10;;;;;;;27.13;24.90;96495.19;4987299;28;20069;-39
2021/01/27 07:36:48;;;;;;;6.35;1.00;;;;;;;27.13;24.89;96496.94;4976620;28;20038;-37
2021/01/27 07:39:22;;;;;;;2.80;0.90;;;;;;;27.11;24.95;96497.03;4981949;28;20416;-37
2021/01/27 07:42:06;;;;;;;5.38;1.10;;;;;;;27.11;24.67;96502.31;4974677;28;20031;-36
2021/01/27 07:44:32;;;;;;;7.65;1.48;;;;;;;27.07;24.48;96505.22;4967965;28;20053;-39
2021/01/27 07:47:12;;;;;;;4.75;1.13;;;;;;;27.06;25.10;96501.75;4973261;28;20050;-40
2021/01/27 07:49:48;;;;;;;1.90;0.82;;;;;;;27.06;25.19;96499.13;4963814;28;20491;-37
2021/01/27 07:52:21;;;;;;;2.03;0.85;;;;;;;27.08;25.11;96507.75;4993409;28;20535;-37
2021/01/27 07:54:50;;;;;;;1.75;0.88;;;;;;;27.08;24.33;96485.88;4995940;28;20030;-36
2021/01/27 07:57:32;;;;;;;4.07;1.20;;;;;;;27.07;24.19;96486.81;4975126;28;20054;-35
2021/01/27 08:00:06;;;;;;;1.48;1.00;;;;;;;27.07;24.02;96485.03;4987078;28;20030;-32
2021/01/27 08:02:33;;;;;;;2.30;1.10;;;;;;;27.05;24.04;96484.31;4976771;28;20839;-40
2021/01/27 08:05:04;;;;;;;2.55;1.23;;;;;;;27.05;24.06;96489.56;4976753;28;20563;-42
2021/01/27 08:07:33;;;;;;;2.07;1.03;;;;;;;27.05;23.94;96486.06;4961319;28;20039;-36
2021/01/27 08:10:14;;;;;;;4.00;0.98;;;;;;;27.04;23.96;96495.72;4981112;28;20308;-39
2021/01/27 08:12:45;;;;;;;1.77;1.05;;;;;;;27.03;23.92;96494.06;4981701;28;20036;-39
2021/01/27 08:15:12;;;;;;;2.67;1.10;;;;;;;27.03;24.16;96494.06;4986711;28;20081;-33
2021/01/27 08:17:45;;;;;;;2.60;1.10;;;;;;;27.04;24.02;96501.00;4974977;28;20035;-40
2021/01/27 08:20:24;;;;;;;2.95;1.20;;;;;;;27.04;24.09;96505.44;4979684;28;20046;-36
2021/01/27 08:22:56;;;;;;;3.33;1.15;;;;;;;27.03;24.25;96509.84;4987157;28;20573;-36
2021/01/27 08:25:53;;;;;;;1.70;1.00;;;;;;;27.01;24.50;96501.22;4979939;28;20034;-37
2021/01/27 08:28:41;;;;;;;1.63;0.80;;;;;;;27.01;25.12;96517.00;4981302;28;20037;-39
2021/01/27 08:31:07;;;;;;;1.27;0.70;;;;;;;27.02;25.37;96510.78;4980755;28;20100;-35
2021/01/27 08:33:44;;;;;;;2.83;1.00;;;;;;;27.04;25.21;96510.69;4985868;28;20680;-37
2021/01/27 08:36:30;;;;;;;1.48;0.80;;;;;;;27.05;25.43;96501.84;4985948;28;20054;-37
2021/01/27 08:38:56;;;;;;;1.73;1.00;;;;;;;27.04;25.37;96494.91;4977226;28;20046;-37
2021/01/27 08:42:00;;;;;;;3.45;1.30;;;;;;;27.06;25.45;96496.50;4984313;28;20041;-40
2021/01/27 08:44:44;;;;;;;3.28;1.20;;;;;;;27.08;25.46;96497.22;4987363;28;20053;-37
2021/01/27 08:47:33;;;;;;;3.60;0.93;;;;;;;27.08;25.56;96497.22;4981212;28;20089;-36
2021/01/27 08:49:59;;;;;;;2.72;1.20;;;;;;;27.10;25.44;96495.38;4987116;28;20057;-37
2021/01/27 08:52:28;;;;;;;10.70;1.30;;;;;;;27.10;25.49;96495.38;4981389;28;20046;-36
2021/01/27 08:54:55;;;;;;;1.17;1.00;;;;;;;27.11;25.52;96491.78;4982289;28;22983;-36
2021/01/27 08:57:32;;;;;;;1.55;0.80;;;;;;;27.12;25.54;96488.22;4988199;28;20042;-35
2021/01/27 09:00:10;;;;;;;1.48;1.00;;;;;;;27.13;24.96;96484.66;4980356;28;20104;-35
2021/01/27 09:02:51;;;;;;;1.60;0.77;;;;;;;27.15;25.28;96484.53;4982996;28;20068;-41
2021/01/27 09:05:26;;;;;;;2.15;1.08;;;;;;;27.14;25.33;96480.22;4980413;28;20496;-32
2021/01/27 09:07:58;;;;;;;3.30;1.10;;;;;;;27.16;25.04;96485.38;4983894;28;20487;-36
2021/01/27 09:10:30;;;;;;;1.30;0.93;;;;;;;27.17;25.24;96484.44;4984385;28;20049;-37
2021/01/27 09:12:56;;;;;;;1.65;1.00;;;;;;;27.17;25.05;96481.81;4986619;28;20049;-37
2021/01/27 09:15:31;;;;;;;2.63;0.95;;;;;;;27.18;25.23;96480.88;4984908;28;20040;-40
2021/01/27 09:17:57;;;;;;;1.35;0.85;;;;;;;27.19;25.05;96479.94;4994022;28;20745;-36
2021/01/27 09:20:24;;;;;;;9.52;1.13;;;;;;;27.17;25.27;96479.19;4999295;28;20057;-37
2021/01/27 09:22:58;;;;;;;3.35;0.80;;;;;;;27.16;25.39;96478.34;4981328;28;20049;-35
2021/01/27 09:25:25;;;;;;;3.78;1.10;;;;;;;27.18;25.39;96478.22;4991351;28;20050;-37
2021/01/27 09:28:06;;;;;;;5.25;0.90;;;;;;;27.19;25.61;96472.88;4982408;28;20095;-42
2021/01/27 09:30:32;;;;;;;3.70;0.73;;;;;;;27.19;25.44;96462.34;4988525;28;20046;-37
2021/01/27 09:33:12;;;;;;;5.80;0.90;;;;;;;27.21;25.25;96460.50;4981992;28;20543;-34
2021/01/27 09:35:37;;;;;;;2.13;0.75;;;;;;;27.22;25.33;96461.31;4982272;28;20096;-36
2021/01/27 09:38:05;;;;;;;11.70;1.00;;;;;;;27.20;25.16;96458.81;4982418;28;20042;-39
2021/01/27 09:40:45;;;;;;;4.93;0.82;;;;;;;27.20;25.01;96455.31;4985229;28;20096;-42
2021/01/27 09:43:12;;;;;;;3.15;0.70;;;;;;;27.19;25.24;96451.84;4975872;28;20034;-38
2021/01/27 09:45:39;;;;;;;2.00;0.70;;;;;;;27.21;24.74;96449.09;4984907;28;20043;-37
2021/01/27 09:48:05;;;;;;;2.80;0.93;;;;;;;27.20;24.95;96453.53;4982967;28;20530;-38
2021/01/27 09:50:31;;;;;;;2.72;0.82;;;;;;;27.21;25.06;96452.59;4988575;28;20577;-40
2021/01/27 09:52:58;;;;;;;2.25;0.90;;;;;;;27.21;25.05;96447.34;4988347;28;20062;-42
2021/01/27 09:55:24;;;;;;;4.88;1.17;;;;;;;27.21;24.92;96455.22;4983858;28;20034;-40
2021/01/27 09:57:50;;;;;;;1.95;0.90;;;;;;;27.22;24.97;96450.78;4988681;28;20041;-38
2021/01/27 10:00:35;;;;;;;5.90;1.40;;;;;;;27.23;25.37;96439.34;4986987;28;20050;-37
2021/01/27 10:03:21;;;;;;;8.68;1.20;;;;;;;27.23;24.93;96436.72;4988242;28;20026;-41
2021/01/27 10:05:46;;;;;;;2.63;1.00;;;;;;;27.23;25.03;96441.97;4989568;28;20112;-36
2021/01/27 10:08:17;;;;;;;2.47;1.13;;;;;;;27.23;25.35;96432.28;4974651;28;20038;-38
2021/01/27 10:10:43;;;;;;;5.18;1.15;;;;;;;27.23;25.49;96426.19;4973353;28;20076;-42
2021/01/27 10:13:10;;;;;;;4.18;1.60;;;;;;;27.25;25.13;96434.81;4980751;28;20046;-32
2021/01/27 10:15:35;;;;;;;5.60;1.27;;;;;;;27.25;24.98;96424.28;4981348;28;20054;-39
2021/01/27 10:18:11;;;;;;;5.63;1.50;;;;;;;27.24;25.22;96415.53;4976518;28;20538;-38
2021/01/27 10:20:39;;;;;;;11.77;1.42;;;;;;;27.25;25.14;96414.63;4985803;28;20080;-41
2021/01/27 10:23:12;;;;;;;6.45;1.52;;;;;;;27.26;25.40;96405.78;4987490;28;20685;-37
2021/01/27 10:25:38;;;;;;;7.80;1.58;;;;;;;27.27;25.67;96411.91;4987122;28;20125;-40
2021/01/27 10:28:05;;;;;;;8.32;1.60;;;;;;;27.27;25.65;96414.53;4979364;28;20507;-36
2021/01/27 10:30:31;;;;;;;7.22;1.50;;;;;;;27.29;25.45;96415.25;4986308;28;20042;-41
2021/01/27 10:32:56;;;;;;;4.85;1.60;;;;;;;27.30;25.67;96416.94;4983513;28;20076;-41
2021/01/27 10:35:24;;;;;;;12.45;1.55;;;;;;;27.30;25.73;96411.69;4983470;28;20042;-37
2021/01/27 10:37:53;;;;;;;4.05;1.40;;;;;;;27.30;25.20;96409.03;4985752;28;20125;-40
2021/01/27 10:40:21;;;;;;;6.15;1.60;;;;;;;27.32;25.21;96420.34;4983299;28;20073;-43
2021/01/27 10:42:51;;;;;;;4.90;1.45;;;;;;;27.33;25.65;96416.75;4982628;28;20085;-38
2021/01/27 10:45:29;;;;;;;2.58;1.00;;;;;;;27.35;25.00;96420.09;4979572;28;20033;-40
2021/01/27 10:48:09;;;;;;;5.93;1.70;;;;;;;27.35;25.10;96409.59;4982923;28;20446;-40
2021/01/27 10:50:36;;;;;;;5.88;1.40;;;;;;;27.33;25.59;96411.50;4982500;28;20026;-38
2021/01/27 10:53:03;;;;;;;7.70;1.60;;;;;;;27.33;25.34;96411.50;4986911;28;20038;-40
2021/01/27 10:55:35;;;;;;;12.10;1.92;;;;;;;27.33;25.83;96406.22;4991357;28;20068;-40
2021/01/27 10:58:09;;;;;;;8.50;1.80;;;;;;;27.34;25.41;96402.63;4992223;28;20038;-41
2021/01/27 11:00:35;;;;;;;9.07;1.73;;;;;;;27.35;25.19;96408.75;4981422;28;20058;-41
2021/01/27 11:03:01;;;;;;;6.05;1.20;;;;;;;27.35;25.63;96412.22;4974375;28;20038;-40
2021/01/27 11:05:27;;;;;;;8.65;1.45;;;;;;;27.30;25.98;96406.41;4988374;28;20179;-39
2021/01/27 11:07:54;;;;;;;9.23;1.88;;;;;;;27.15;26.42;96412.69;4293077;28;10000758;-37
2021/01/27 11:10:19;;;;;;;6.30;2.00;;;;;;;27.03;26.59;96414.34;4973640;28;20041;-38
2021/01/27 11:12:45;;;;;;;3.42;1.63;;;;;;;26.91;27.23;96405.38;4976208;28;20089;-39
2021/01/27 11:15:11;;;;;;;5.63;1.60;;;;;;;26.86;27.08;96398.63;4971934;28;20152;-44
2021/01/27 11:17:37;;;;;;;5.63;1.73;;;;;;;26.92;27.15;96400.03;4978783;28;20042;-41
2021/01/27 11:20:04;;;;;;;2.42;1.35;;;;;;;27.00;26.95;96392.53;4973700;28;20045;-43
2021/01/27 11:22:30;;;;;;;6.85;1.73;;;;;;;27.12;27.14;96404.03;4983540;28;20989;-41
2021/01/27 11:24:56;;;;;;;5.38;1.40;;;;;;;27.24;26.56;96397.13;4974895;28;20046;-40
2021/01/27 11:27:21;;;;;;;5.30;1.35;;;;;;;27.36;26.50;96400.78;4979497;28;20042;-35
2021/01/27 11:29:47;;;;;;;4.05;1.58;;;;;;;27.48;26.44;96398.25;4977933;28;20038;-37
2021/01/27 11:32:13;;;;;;;2.88;1.55;;;;;;;27.59;26.04;96398.41;4974054;28;20034;-42
2021/01/27 11:34:41;;;;;;;4.57;1.48;;;;;;;27.70;26.42;96396.84;4977766;28;20077;-41
2021/01/27 11:37:07;;;;;;;4.30;1.52;;;;;;;27.80;26.10;96397.09;4979626;28;20053;-38
2021/01/27 11:39:34;;;;;;;4.65;1.83;;;;;;;27.90;25.82;96391.09;4979999;28;20039;-42
2021/01/27 11:42:00;;;;;;;4.15;1.25;;;;;;;27.99;25.86;96378.25;4976855;28;20053;-38
2021/01/27 11:44:26;;;;;;;4.28;1.48;;;;;;;28.08;25.38;96374.97;4982640;28;20038;-39
2021/01/27 11:46:52;;;;;;;4.53;1.80;;;;;;;28.17;25.56;96374.31;4965702;28;20053;-40
2021/01/27 11:49:17;;;;;;;3.53;1.33;;;;;;;28.24;25.24;96369.47;4985112;28;20045;-36
2021/01/27 11:51:43;;;;;;;4.18;1.27;;;;;;;28.27;24.12;96360.53;4980445;28;20134;-41
2021/01/27 11:54:09;;;;;;;3.08;1.55;;;;;;;28.28;25.07;96359.56;4984117;28;20542;-41
2021/01/27 11:56:35;;;;;;;3.53;1.30;;;;;;;28.29;25.13;96361.25;4966704;28;20051;-39
2021/01/27 11:59:01;;;;;;;3.58;1.30;;;;;;;28.30;24.05;96353.25;4969928;28;20026;-38